Time;durP1;ratioP1;P1;durP2;ratioP2;P2;SDS_P1;SDS_P2;PMS_P1;PMS_P2;Temp;Humidity;BMP_temperature;BMP_pressure;BME280_temperature;BME280_humidity;BME280_pressure;Samples;Min_cycle;Max_cycle;Signal;HPM_P1;HPM_P2
2023/10/07 00:00:59;;;;;;;3.65;2.20;;;;;;;13.50;100.00;101368.00;4985672;28;20042;-79
2023/10/07 00:03:25;;;;;;;3.65;3.25;;;;;;;12.94;100.00;101287.78;4985756;28;21350;-79
2023/10/07 00:06:00;;;;;;;6.10;4.43;;;;;;;13.41;100.00;101400.47;4986502;28;20049;-79
2023/10/07 00:08:27;;;;;;;1.05;0.95;;;;;;;12.85;100.00;101307.09;4983756;28;20050;-78
2023/10/07 00:10:58;;;;;;;1.40;1.30;;;;;;;12.86;100.00;101277.22;4979230;28;20077;-79
2023/10/07 00:13:26;;;;;;;1.65;1.50;;;;;;;13.40;100.00;101387.28;4986275;28;20111;-80
2023/10/07 00:15:53;;;;;;;0.63;0.55;;;;;;;13.43;100.00;101393.44;4988124;28;20069;-79
2023/10/07 00:18:19;;;;;;;1.58;1.20;;;;;;;12.93;100.00;101309.75;4988190;28;20125;-80
2023/10/07 00:20:56;;;;;;;3.10;2.15;;;;;;;13.19;100.00;101398.59;4988541;28;20038;-80
2023/10/07 00:23:28;;;;;;;2.85;2.40;;;;;;;12.73;100.00;101279.78;4987832;28;20077;-85
2023/10/07 00:25:57;;;;;;;1.00;0.77;;;;;;;12.63;100.00;101281.50;4983877;28;20054;-86
2023/10/07 00:28:35;;;;;;;4.63;3.80;;;;;;;13.07;100.00;101381.84;4988546;28;20048;-84
2023/10/07 00:31:12;;;;;;;3.60;2.25;;;;;;;12.50;100.00;101280.53;4987510;28;20046;-85
2023/10/07 00:38:59;;;;;;;2.65;1.60;;;;;;;12.75;100.00;101388.66;4989885;28;20054;-83
2023/10/07 00:41:27;;;;;;;2.70;2.30;;;;;;;12.65;100.00;101393.84;4987491;28;20047;-81
2023/10/07 00:43:58;;;;;;;2.90;1.00;;;;;;;12.50;100.00;101383.19;4986727;28;20353;-79
2023/10/07 00:46:34;;;;;;;2.50;2.00;;;;;;;11.89;100.00;101285.34;4981710;28;20541;-82
2023/10/07 00:49:09;;;;;;;3.53;1.35;;;;;;;12.28;100.00;101329.53;4988094;28;20707;-83
2023/10/07 00:51:42;;;;;;;5.90;1.92;;;;;;;12.47;100.00;101370.03;4988022;28;20059;-77
2023/10/07 00:57:13;;;;;;;2.08;1.40;;;;;;;12.49;100.00;101391.97;4985293;28;20046;-78
2023/10/07 00:59:49;;;;;;;3.00;1.83;;;;;;;12.41;100.00;101376.13;4986752;28;20081;-84
2023/10/07 01:02:18;;;;;;;2.53;2.25;;;;;;;11.92;100.00;101283.66;4988025;28;20042;-84
2023/10/07 01:04:45;;;;;;;2.38;1.65;;;;;;;12.30;100.00;101356.75;4986815;28;20046;-81
2023/10/07 01:07:17;;;;;;;1.42;1.30;;;;;;;11.82;100.00;101273.84;4981619;28;20491;-83
2023/10/07 01:10:05;;;;;;;0.80;0.77;;;;;;;12.30;100.00;101379.56;4986621;28;20525;-83
2023/10/07 01:12:36;;;;;;;0.52;0.40;;;;;;;12.12;100.00;101360.09;4988405;28;20070;-82
2023/10/07 01:15:13;;;;;;;6.00;2.15;;;;;;;11.81;100.00;101290.53;4989140;28;20045;-84
2023/10/07 01:17:41;;;;;;;5.28;2.78;;;;;;;12.34;100.00;101383.94;4981826;28;20053;-81
2023/10/07 01:20:08;;;;;;;2.28;1.95;;;;;;;11.49;100.00;101254.28;4986830;28;20143;-82
2023/10/07 01:22:43;;;;;;;1.55;1.10;;;;;;;12.20;100.00;101368.06;4986566;28;20049;-79
2023/10/07 01:25:11;;;;;;;2.78;1.83;;;;;;;11.77;100.00;101265.06;4980502;28;20125;-80
2023/10/07 01:27:49;;;;;;;2.42;1.83;;;;;;;11.83;100.00;101302.81;4985213;28;20108;-79
2023/10/07 01:33:46;;;;;;;3.72;2.45;;;;;;;12.39;100.00;101390.16;4987699;28;20061;-80
2023/10/07 01:35:40;;;;;;;1.50;1.40;;;;;;;12.38;100.00;101385.75;4971029;28;20522;-77
2023/10/07 01:38:09;;;;;;;1.20;1.10;;;;;;;12.10;100.00;101293.41;5017009;28;20054;-81
2023/10/07 01:43:15;;;;;;;1.20;1.05;;;;;;;12.58;100.00;101372.75;4990487;28;20104;-82
2023/10/07 01:45:41;;;;;;;1.75;1.45;;;;;;;11.95;100.00;101274.91;4987004;28;20561;-80
2023/10/07 01:48:10;;;;;;;1.70;1.60;;;;;;;12.65;100.00;101374.56;4986489;28;20133;-79
2023/10/07 01:50:40;;;;;;;2.90;2.08;;;;;;;12.65;100.00;101379.81;4986913;28;20038;-79
2023/10/07 01:53:06;;;;;;;4.20;2.75;;;;;;;11.99;100.00;101253.88;4986736;28;20038;-81
2023/10/07 01:55:47;;;;;;;9.18;1.50;;;;;;;12.25;100.00;101283.03;4986522;28;20042;-82
2023/10/07 01:58:14;;;;;;;1.20;1.00;;;;;;;12.36;100.00;101301.53;4986731;28;20050;-81
2023/10/07 02:00:45;;;;;;;2.20;2.00;;;;;;;12.16;100.00;101316.28;4980537;28;20854;-83
2023/10/07 02:03:16;;;;;;;3.72;2.47;;;;;;;12.02;100.00;101274.94;4986927;28;20105;-81
2023/10/07 02:05:49;;;;;;;10.30;1.48;;;;;;;12.39;100.00;101342.78;4986409;28;20055;-80
2023/10/07 02:08:24;;;;;;;3.90;2.00;;;;;;;11.93;100.00;101250.31;4986304;28;20046;-80
2023/10/07 02:10:56;;;;;;;0.93;0.93;;;;;;;11.95;100.00;101241.56;4986698;28;20043;-83
2023/10/07 02:13:22;;;;;;;2.83;2.60;;;;;;;12.88;100.00;101348.38;4986464;28;20045;-82
2023/10/07 02:15:57;;;;;;;2.22;1.77;;;;;;;12.84;100.00;101334.28;4986960;28;20050;-81
2023/10/07 02:18:27;;;;;;;1.42;1.20;;;;;;;12.99;100.00;101349.28;4985260;28;20041;-82
2023/10/07 02:21:05;;;;;;;1.00;0.90;;;;;;;13.02;100.00;101351.94;4987110;28;20041;-83
2023/10/07 02:23:43;;;;;;;2.55;1.50;;;;;;;12.23;100.00;101218.97;4984758;28;20065;-81
2023/10/07 02:26:21;;;;;;;2.40;1.67;;;;;;;12.83;100.00;101323.72;4988253;28;20051;-80
2023/10/07 02:28:52;;;;;;;1.77;1.67;;;;;;;12.96;100.00;101317.66;4979788;28;20089;-81
2023/10/07 02:31:24;;;;;;;2.65;1.55;;;;;;;12.50;100.00;101214.72;4979763;28;20061;-80
2023/10/07 02:34:07;;;;;;;2.45;2.28;;;;;;;13.08;100.00;101311.56;4984692;28;20055;-80
2023/10/07 02:36:36;;;;;;;1.73;1.38;;;;;;;12.82;100.00;101272.81;4981233;28;20054;-79
2023/10/07 02:39:18;;;;;;;14.85;1.95;;;;;;;13.16;100.00;101303.69;4985106;28;20041;-80
2023/10/07 02:41:47;;;;;;;6.95;2.80;;;;;;;13.21;100.00;101309.88;4976248;28;20153;-80
2023/10/07 02:44:17;;;;;;;2.42;2.17;;;;;;;13.09;100.00;101310.72;4982304;28;20130;-81
2023/10/07 02:46:43;;;;;;;3.83;3.28;;;;;;;13.03;100.00;101286.97;4985766;28;20057;-81
2023/10/07 02:49:13;;;;;;;1.65;1.20;;;;;;;12.66;100.00;101205.16;4985156;28;20093;-81
2023/10/07 02:51:39;;;;;;;1.00;0.98;;;;;;;13.30;100.00;101305.53;4985882;28;20050;-81
2023/10/07 02:56:54;;;;;;;2.63;1.63;;;;;;;13.12;100.00;101300.16;4985792;28;20422;-81
2023/10/07 02:59:30;;;;;;;0.68;0.60;;;;;;;12.70;100.00;101225.34;5007718;28;20046;-82
2023/10/07 03:02:12;;;;;;;1.95;1.52;;;;;;;13.10;100.00;101286.09;4975164;28;20078;-82
2023/10/07 03:07:34;;;;;;;2.53;2.33;;;;;;;13.26;100.00;101306.38;4986869;28;20042;-82
2023/10/07 03:10:19;;;;;;;4.57;3.35;;;;;;;13.07;100.00;101268.53;4985217;28;20077;-82
2023/10/07 03:12:48;;;;;;;4.85;2.63;;;;;;;13.23;100.00;101279.13;4982873;28;20054;-83
2023/10/07 03:15:39;;;;;;;1.80;0.65;;;;;;;12.78;100.00;101213.13;4984282;28;20120;-83
2023/10/07 03:18:06;;;;;;;0.88;0.65;;;;;;;13.14;100.00;101273.84;4986774;28;20074;-82
2023/10/07 03:20:46;;;;;;;4.82;2.10;;;;;;;13.30;100.00;101283.59;4984470;28;20042;-83
2023/10/07 03:23:15;;;;;;;1.98;1.13;;;;;;;12.70;100.00;101201.66;4985893;28;20085;-82
2023/10/07 03:28:21;;;;;;;4.50;2.45;;;;;;;13.05;100.00;101288.72;4980978;28;20074;-84
2023/10/07 03:30:56;;;;;;;1.63;1.52;;;;;;;12.98;100.00;101268.50;4985606;28;20191;-82
2023/10/07 03:36:30;;;;;;;2.45;1.73;;;;;;;12.16;100.00;101103.16;4984926;28;20069;-82
2023/10/07 03:41:47;;;;;;;2.25;1.83;;;;;;;13.05;100.00;101275.53;4979405;28;20856;-83
2023/10/07 03:44:16;;;;;;;2.80;2.55;;;;;;;12.69;100.00;101202.56;4984280;28;20042;-84
2023/10/07 03:46:44;;;;;;;5.53;2.95;;;;;;;12.02;100.00;101172.38;4980042;28;20045;-84
2023/10/07 03:49:11;;;;;;;1.70;1.58;;;;;;;11.69;100.00;101169.47;4981028;28;20558;-84
2023/10/07 03:51:37;;;;;;;2.13;1.85;;;;;;;11.32;100.00;101135.00;4976113;28;20467;-84
2023/10/07 03:54:15;;;;;;;0.73;0.73;;;;;;;11.38;100.00;101192.88;4984456;28;20050;-84
2023/10/07 03:56:42;;;;;;;4.00;2.25;;;;;;;11.69;100.00;101270.25;4984747;28;20058;-83
2023/10/07 03:59:08;;;;;;;4.25;2.08;;;;;;;11.66;100.00;101269.31;4985354;28;20077;-84
2023/10/07 04:01:42;;;;;;;3.08;2.78;;;;;;;11.19;100.00;101200.56;4984595;28;20054;-83
2023/10/07 04:04:11;;;;;;;2.70;1.85;;;;;;;11.10;100.00;101182.09;4978113;28;20050;-83
2023/10/07 04:06:41;;;;;;;1.80;1.70;;;;;;;11.82;100.00;101298.44;4984902;28;20054;-84
2023/10/07 04:09:07;;;;;;;6.25;2.55;;;;;;;11.81;100.00;101274.75;4984806;28;20040;-85
2023/10/07 04:11:37;;;;;;;4.05;2.92;;;;;;;10.92;100.00;101174.03;4988985;28;20079;-86
2023/10/07 04:14:09;;;;;;;3.65;2.22;;;;;;;11.11;100.00;101149.69;4988912;28;20054;-83
2023/10/07 04:16:36;;;;;;;5.03;3.40;;;;;;;12.03;100.00;101253.06;4983362;28;20073;-82
2023/10/07 04:21:55;;;;;;;2.90;1.75;;;;;;;10.85;100.00;101140.69;4971273;28;20050;-82
2023/10/07 04:24:23;;;;;;;1.20;1.08;;;;;;;11.55;100.00;101242.97;4987400;28;20101;-83
2023/10/07 04:26:54;;;;;;;2.45;2.17;;;;;;;10.83;100.00;101205.41;4986328;28;20100;-81
2023/10/07 04:29:21;;;;;;;3.08;2.10;;;;;;;11.12;100.00;101242.50;4987437;28;20035;-83
2023/10/07 04:31:53;;;;;;;5.30;2.80;;;;;;;10.49;100.00;101155.16;4984732;28;20173;-83
2023/10/07 04:34:20;;;;;;;3.67;3.30;;;;;;;10.50;100.00;101160.41;4984742;28;20122;-82
2023/10/07 04:37:08;;;;;;;3.85;3.55;;;;;;;10.61;100.00;101181.53;4980793;28;20483;-83
2023/10/07 04:40:27;;;;;;;0.30;0.30;;;;;;;10.74;100.00;101227.19;4986664;28;20088;-82
2023/10/07 04:42:36;;;;;;;1.95;1.55;;;;;;;10.46;100.00;101173.47;4988011;28;20050;-83
2023/10/07 04:45:35;;;;;;;5.97;2.95;;;;;;;11.06;100.00;101292.34;4975384;28;20038;-83
2023/10/07 04:48:23;;;;;;;6.50;1.92;;;;;;;10.50;100.00;101159.53;4980747;28;20054;-83
2023/10/07 04:51:02;;;;;;;1.15;1.05;;;;;;;10.89;100.00;101161.75;4976013;28;20043;-82
2023/10/07 04:53:37;;;;;;;3.50;3.05;;;;;;;11.83;100.00;101288.78;4987887;28;20088;-83
2023/10/07 04:56:03;;;;;;;1.60;0.73;;;;;;;11.70;100.00;101273.75;5015891;28;20046;-84
2023/10/07 04:58:29;;;;;;;4.25;2.15;;;;;;;11.16;100.00;101152.38;4986512;28;20038;-84
2023/10/07 05:01:04;;;;;;;3.25;1.80;;;;;;;11.70;100.00;101287.78;4987541;28;20873;-84
2023/10/07 05:03:33;;;;;;;2.85;2.20;;;;;;;11.82;100.00;101271.22;4987214;28;20740;-84
2023/10/07 05:05:59;;;;;;;2.72;2.50;;;;;;;10.85;100.00;101070.69;5017100;28;20061;-85
2023/10/07 05:08:27;;;;;;;0.35;0.35;;;;;;;11.52;100.00;101185.09;4981508;28;20050;-85
2023/10/07 05:10:54;;;;;;;4.70;2.85;;;;;;;11.95;100.00;101275.78;4987180;28;20141;-83
2023/10/07 05:13:20;;;;;;;3.38;1.92;;;;;;;12.02;100.00;101288.09;4978121;28;20038;-84
2023/10/07 05:15:46;;;;;;;1.83;1.73;;;;;;;11.50;100.00;101198.25;4983216;28;20049;-84
2023/10/07 05:18:15;;;;;;;2.35;2.15;;;;;;;11.30;100.00;101195.41;4980771;28;20038;-85
2023/10/07 05:20:42;;;;;;;1.65;1.52;;;;;;;12.11;100.00;101295.19;4986109;28;20472;-85
2023/10/07 05:23:13;;;;;;;16.48;3.42;;;;;;;11.88;100.00;101263.44;4987614;28;20069;-84
2023/10/07 05:25:48;;;;;;;7.03;4.70;;;;;;;11.55;100.00;101150.97;4978678;28;20141;-86
2023/10/07 05:28:21;;;;;;;1.90;1.75;;;;;;;11.64;100.00;101226.41;4986115;28;20069;-85
2023/10/07 05:30:51;;;;;;;3.10;2.80;;;;;;;12.01;100.00;101288.97;4968989;28;20042;-84
2023/10/07 05:33:19;;;;;;;1.35;1.08;;;;;;;11.68;100.00;101184.34;4988001;28;20129;-83
2023/10/07 05:35:44;;;;;;;1.10;1.00;;;;;;;11.40;100.00;101168.38;4986897;28;20282;-88
2023/10/07 05:38:10;;;;;;;3.72;2.55;;;;;;;11.69;100.00;101190.50;4987543;28;20520;-84
2023/10/07 05:40:36;;;;;;;1.17;1.08;;;;;;;12.37;100.00;101300.66;5014281;28;20046;-83
2023/10/07 05:43:07;;;;;;;4.05;3.70;;;;;;;12.46;100.00;101302.47;4981163;28;20402;-83
2023/10/07 05:45:33;;;;;;;1.42;1.33;;;;;;;12.61;100.00;101304.31;4985388;28;20154;-84
2023/10/07 05:47:59;;;;;;;1.95;1.67;;;;;;;11.80;100.00;101181.84;4975800;28;20038;-83
2023/10/07 05:50:28;;;;;;;3.25;1.85;;;;;;;12.12;100.00;101212.75;4980530;28;20485;-81
2023/10/07 05:52:54;;;;;;;3.13;2.40;;;;;;;13.08;100.00;101298.38;4978813;28;20080;-82
2023/10/07 05:55:22;;;;;;;5.30;3.80;;;;;;;12.94;100.00;101253.53;4978940;28;20038;-83
2023/10/07 05:57:48;;;;;;;1.38;1.27;;;;;;;12.96;100.00;101232.50;4978127;28;20530;-83
2023/10/07 06:00:17;;;;;;;5.47;3.05;;;;;;;13.30;100.00;101273.03;4997198;28;20038;-83
2023/10/07 06:02:48;;;;;;;1.38;0.93;;;;;;;13.59;100.00;101288.03;4985754;28;20038;-83
2023/10/07 06:05:14;;;;;;;1.33;1.23;;;;;;;13.43;100.00;101235.25;4985978;28;20061;-81
2023/10/07 06:07:39;;;;;;;4.47;3.42;;;;;;;13.29;100.00;101192.19;4986887;28;20076;-87
2023/10/07 06:10:10;;;;;;;1.77;1.50;;;;;;;14.03;100.00;101303.91;4983147;28;20194;-85
2023/10/07 06:12:36;;;;;;;4.53;3.00;;;;;;;13.25;100.00;101164.03;4985895;28;20088;-79
2023/10/07 06:15:08;;;;;;;3.47;2.63;;;;;;;13.44;100.00;101186.06;4978204;28;20046;-84
2023/10/07 06:17:33;;;;;;;2.42;1.42;;;;;;;14.11;100.00;101280.13;4987315;28;20049;-85
2023/10/07 06:19:59;;;;;;;6.05;5.47;;;;;;;14.02;100.00;101298.63;4985007;28;20046;-84
2023/10/07 06:22:24;;;;;;;2.45;2.25;;;;;;;13.39;100.00;101211.53;4982491;28;20387;-84
2023/10/07 06:24:55;;;;;;;2.70;2.13;;;;;;;14.14;100.00;101273.13;4981514;28;20137;-85
2023/10/07 06:27:21;;;;;;;8.68;4.40;;;;;;;13.98;100.00;101275.72;4983600;28;20034;-87
2023/10/07 06:29:51;;;;;;;5.10;1.58;;;;;;;13.71;100.00;101195.72;4988985;28;20435;-86
2023/10/07 06:32:22;;;;;;;3.17;2.95;;;;;;;13.51;100.00;101177.28;4985710;28;20053;-85
2023/10/07 06:34:51;;;;;;;4.10;3.67;;;;;;;14.06;100.00;101282.78;4981971;28;20459;-84
2023/10/07 06:37:25;;;;;;;5.25;4.78;;;;;;;13.80;100.00;101198.38;4977338;28;20056;-81
2023/10/07 06:39:51;;;;;;;2.08;1.80;;;;;;;14.32;100.00;101290.66;4982558;28;20134;-75
2023/10/07 06:42:21;;;;;;;2.28;2.08;;;;;;;14.26;100.00;101293.34;4978111;28;20112;-75
2023/10/07 06:44:47;;;;;;;7.53;3.30;;;;;;;13.73;100.00;101168.47;4985052;28;20026;-76
2023/10/07 06:47:13;;;;;;;3.13;2.53;;;;;;;14.44;100.00;101241.38;4976553;28;20118;-75
2023/10/07 06:49:39;;;;;;;7.15;4.07;;;;;;;14.36;100.00;101188.59;4985899;28;20049;-76
2023/10/07 06:52:05;;;;;;;2.33;2.13;;;;;;;14.93;100.00;101284.38;4985835;28;20132;-76
2023/10/07 06:54:32;;;;;;;5.63;3.75;;;;;;;14.42;100.00;101180.66;4984435;28;20554;-76
2023/10/07 06:56:58;;;;;;;2.22;2.03;;;;;;;14.43;100.00;101170.97;4983728;28;20048;-76
2023/10/07 06:59:30;;;;;;;3.00;2.70;;;;;;;14.56;100.00;101185.91;4974907;28;20538;-75
2023/10/07 07:02:11;;;;;;;3.15;2.85;;;;;;;15.11;100.00;101274.63;4970698;28;20490;-77
2023/10/07 07:04:38;;;;;;;6.25;4.40;;;;;;;15.10;100.00;101286.06;4978449;28;20061;-75
2023/10/07 07:07:10;;;;;;;6.70;3.08;;;;;;;15.07;100.00;101227.94;4981644;28;20116;-76
2023/10/07 07:09:50;;;;;;;2.67;2.47;;;;;;;14.98;100.00;101219.19;4984334;28;20058;-75
2023/10/07 07:12:21;;;;;;;3.53;2.30;;;;;;;15.56;100.00;101158.84;4981899;28;20042;-66
2023/10/07 07:15:26;;;;;;;1.85;1.75;;;;;;;15.87;100.00;101267.97;4984685;28;20049;-67
2023/10/07 07:17:43;;;;;;;4.60;2.15;;;;;;;15.74;100.00;101169.31;4982947;28;20086;-68
2023/10/07 07:22:39;;;;;;;5.68;3.13;;;;;;;16.17;100.00;101205.94;4980561;28;20133;-76
2023/10/07 07:25:11;;;;;;;7.28;5.13;;;;;;;16.79;100.00;101272.41;4983737;28;20051;-75
2023/10/07 07:27:48;;;;;;;2.85;2.53;;;;;;;17.86;100.00;101287.75;4983770;28;20054;-73
2023/10/07 07:30:29;;;;;;;23.15;4.43;;;;;;;16.29;100.00;101183.75;4984645;28;20355;-73
2023/10/07 07:32:59;;;;;;;5.55;2.95;;;;;;;18.04;100.00;101201.59;4977945;28;20039;-73
2023/10/07 07:35:41;;;;;;;3.38;2.78;;;;;;;18.74;100.00;101269.34;4982762;28;20062;-74
2023/10/07 07:38:17;;;;;;;4.07;3.78;;;;;;;17.77;100.00;101179.03;4985275;28;20133;-72
2023/10/07 07:40:43;;;;;;;2.55;2.35;;;;;;;18.40;100.00;101210.63;4984849;28;20053;-72
2023/10/07 07:43:09;;;;;;;2.72;1.50;;;;;;;17.14;100.00;101161.47;4987350;28;20058;-75
2023/10/07 07:45:35;;;;;;;3.22;2.08;;;;;;;17.59;100.00;101189.06;4987036;28;20058;-72
2023/10/07 07:48:06;;;;;;;3.42;1.77;;;;;;;16.90;100.00;101170.66;4980646;28;20050;-73
2023/10/07 07:50:35;;;;;;;5.63;3.53;;;;;;;17.71;100.00;101252.56;4985815;28;20800;-74
2023/10/07 07:53:07;;;;;;;2.45;2.25;;;;;;;18.17;100.00;101263.31;4988274;28;20097;-72
2023/10/07 07:55:45;;;;;;;3.75;3.50;;;;;;;20.28;100.00;101272.97;4984464;28;20050;-71
2023/10/07 07:58:11;;;;;;;4.03;3.72;;;;;;;18.41;99.18;101251.41;4986063;28;20049;-71
2023/10/07 08:00:44;;;;;;;2.83;2.58;;;;;;;17.62;100.00;101241.22;4985725;28;20054;-77
2023/10/07 08:03:10;;;;;;;3.63;3.03;;;;;;;16.75;100.00;101183.19;4988485;28;20076;-78
2023/10/07 08:05:40;;;;;;;2.97;2.67;;;;;;;17.13;100.00;101178.28;4988833;28;20450;-76
2023/10/07 08:08:19;;;;;;;5.85;5.15;;;;;;;17.75;100.00;101233.91;4985545;28;20069;-77
2023/10/07 08:10:48;;;;;;;6.95;4.30;;;;;;;17.87;100.00;101255.00;4966757;28;20364;-74
2023/10/07 08:13:17;;;;;;;2.72;2.15;;;;;;;17.30;100.00;101213.38;4980952;28;20089;-75
2023/10/07 08:15:47;;;;;;;4.47;3.28;;;;;;;17.97;100.00;101239.78;4980474;28;20074;-76
2023/10/07 08:18:13;;;;;;;3.72;2.92;;;;;;;17.69;100.00;101211.00;4985999;28;20046;-77
2023/10/07 08:20:44;;;;;;;2.22;1.98;;;;;;;17.15;100.00;101148.19;4985725;28;20100;-75
2023/10/07 08:23:29;;;;;;;3.70;3.42;;;;;;;17.44;100.00;101174.28;4987277;28;20533;-76
2023/10/07 08:26:34;;;;;;;5.95;5.00;;;;;;;17.48;100.00;101244.06;4980400;28;20133;-76
2023/10/07 08:31:37;;;;;;;1.90;1.65;;;;;;;17.36;100.00;101146.97;4987055;28;20050;-77
2023/10/07 08:34:15;;;;;;;4.15;3.05;;;;;;;17.93;100.00;101234.53;4983584;28;20655;-77
2023/10/07 08:36:47;;;;;;;2.83;1.70;;;;;;;18.11;100.00;101246.59;4987640;28;20145;-77
2023/10/07 08:39:19;;;;;;;2.45;2.25;;;;;;;18.28;100.00;101258.69;4985572;28;20061;-75
2023/10/07 08:41:52;;;;;;;2.75;2.38;;;;;;;18.16;100.00;101222.63;4987620;28;20216;-76
2023/10/07 08:44:20;;;;;;;5.38;2.17;;;;;;;18.29;100.00;101241.88;4977440;28;20038;-75
2023/10/07 08:46:54;;;;;;;1.65;1.55;;;;;;;18.26;100.00;101221.56;4983047;28;20471;-76
2023/10/07 08:49:26;;;;;;;3.58;1.23;;;;;;;18.00;100.00;101142.34;4978879;28;20481;-75
2023/10/07 08:51:56;;;;;;;2.53;2.07;;;;;;;18.46;100.00;101230.91;4979657;28;20050;-76
2023/10/07 08:54:31;;;;;;;3.50;3.17;;;;;;;18.08;100.00;101116.53;4996313;28;20050;-74
2023/10/07 08:57:10;;;;;;;2.72;2.25;;;;;;;18.68;100.00;101229.59;4980962;28;20136;-74
2023/10/07 08:59:37;;;;;;;2.10;1.98;;;;;;;18.17;100.00;101163.28;4979468;28;20118;-75
2023/10/07 09:02:12;;;;;;;2.00;1.70;;;;;;;18.18;100.00;101141.13;4986614;28;20597;-76
2023/10/07 09:04:40;;;;;;;1.85;1.75;;;;;;;18.83;100.00;101216.91;4974410;28;20155;-76
2023/10/07 09:07:08;;;;;;;4.95;2.08;;;;;;;19.01;99.27;101216.53;4978740;28;20054;-75
2023/10/07 09:09:38;;;;;;;4.85;3.83;;;;;;;19.10;99.33;101208.31;4975836;28;20050;-75
2023/10/07 09:12:28;;;;;;;2.95;2.05;;;;;;;18.94;100.00;101186.53;4981885;28;20539;-74
2023/10/07 09:14:57;;;;;;;1.83;1.67;;;;;;;18.98;96.88;101177.53;4974938;28;20109;-75
2023/10/07 09:17:27;;;;;;;0.95;0.82;;;;;;;18.87;96.68;101131.72;4954777;28;20452;-74
2023/10/07 09:19:58;;;;;;;7.43;3.47;;;;;;;18.70;95.87;101104.59;4981519;28;20568;-76
2023/10/07 09:22:27;;;;;;;1.60;1.10;;;;;;;19.26;94.09;101205.31;4977878;28;20538;-75
2023/10/07 09:25:08;;;;;;;2.15;1.92;;;;;;;19.25;91.70;101184.94;5014594;28;20133;-75
2023/10/07 09:27:37;;;;;;;0.47;0.47;;;;;;;19.11;89.94;101153.34;4975957;28;20050;-76
2023/10/07 09:30:15;;;;;;;1.25;1.15;;;;;;;18.91;88.59;101090.81;4976338;28;20057;-75
2023/10/07 09:32:44;;;;;;;2.35;2.20;;;;;;;19.69;88.41;101180.31;4982160;28;20080;-75
2023/10/07 09:35:19;;;;;;;1.30;0.90;;;;;;;19.56;85.76;101166.44;4974359;28;20045;-78
2023/10/07 09:37:46;;;;;;;2.00;1.85;;;;;;;19.93;83.89;101177.03;5010872;28;20126;-77
2023/10/07 09:41:07;;;;;;;2.97;2.38;;;;;;;19.86;85.87;101156.81;4982745;28;20149;-79
2023/10/07 09:43:19;;;;;;;1.33;1.25;;;;;;;19.90;87.07;101133.63;4975782;28;20046;-77
2023/10/07 09:45:52;;;;;;;12.82;2.47;;;;;;;20.30;88.01;101164.47;4983397;28;20038;-81
2023/10/07 09:48:23;;;;;;;0.30;0.30;;;;;;;20.21;80.26;101150.53;4974191;28;20526;-75
2023/10/07 09:50:55;;;;;;;7.05;1.60;;;;;;;20.05;84.07;101081.72;4977952;28;20065;-78
2023/10/07 09:53:30;;;;;;;1.33;0.93;;;;;;;20.75;81.14;101145.44;4978469;28;20077;-80
2023/10/07 09:56:44;;;;;;;1.88;1.52;;;;;;;20.83;76.44;101146.94;4978545;28;20038;-76
2023/10/07 09:59:22;;;;;;;;;;;;;;;20.73;73.47;101141.94;4962345;28;20112;-74
2023/10/07 10:02:25;;;;;;;0.82;0.70;;;;;;;20.82;72.83;101139.00;4978427;28;19925;-76
2023/10/07 10:05:05;;;;;;;1.15;1.05;;;;;;;20.96;71.53;101131.44;4973428;28;20069;-75
2023/10/07 10:08:11;;;;;;;3.50;2.40;;;;;;;21.03;71.15;101102.75;4973825;28;20062;-78
2023/10/07 10:10:45;;;;;;;0.82;0.77;;;;;;;20.58;68.63;101025.94;4974212;28;20108;-78
2023/10/07 10:16:18;;;;;;;3.78;2.90;;;;;;;21.14;70.79;101100.63;4995836;28;20116;-74
2023/10/07 10:18:50;;;;;;;3.10;1.35;;;;;;;20.93;69.38;101107.53;4984019;28;20053;-81
2023/10/07 10:21:22;;;;;;;1.83;1.73;;;;;;;20.74;69.93;101032.53;4979922;28;20038;-80
2023/10/07 10:23:51;;;;;;;1.60;1.40;;;;;;;20.87;70.13;101003.66;4981401;28;20072;-82
2023/10/07 10:26:22;;;;;;;1.98;1.60;;;;;;;21.53;69.60;101086.88;4980747;28;20041;-76
2023/10/07 10:29:04;;;;;;;2.30;1.75;;;;;;;21.78;68.05;101067.31;4974997;28;20093;-78
2023/10/07 10:31:37;;;;;;;1.17;1.08;;;;;;;21.82;65.43;101074.28;4980333;28;20074;-80
2023/10/07 10:34:14;;;;;;;;;;;;;;;22.08;67.43;101071.53;4980234;28;20050;-76
2023/10/07 10:36:48;;;;;;;15.32;1.67;;;;;;;21.98;65.33;101035.38;4981342;28;19922;-82
2023/10/07 10:39:41;;;;;;;1.42;1.30;;;;;;;22.10;64.93;101044.72;4996065;28;20073;-79
2023/10/07 10:42:13;;;;;;;3.80;2.77;;;;;;;21.78;64.60;100989.84;4977978;28;20046;-80
2023/10/07 10:44:39;;;;;;;0.28;0.25;;;;;;;22.56;64.50;101045.66;4978689;28;20076;-86
2023/10/07 10:47:07;;;;;;;3.05;1.77;;;;;;;22.57;64.00;101033.16;4982855;28;20506;-75
2023/10/07 10:49:35;;;;;;;2.38;1.67;;;;;;;21.98;63.40;100943.63;4984169;28;20124;-77
2023/10/07 10:52:02;;;;;;;2.10;1.98;;;;;;;22.29;64.10;100946.88;4978992;28;20053;-77
2023/10/07 10:54:28;;;;;;;3.90;2.58;;;;;;;22.54;63.29;100943.19;4980080;28;20085;-76
2023/10/07 10:56:55;;;;;;;2.70;1.13;;;;;;;23.02;62.81;101017.06;4984642;28;20069;-77
2023/10/07 10:59:36;;;;;;;7.78;1.38;;;;;;;23.10;61.79;101019.41;4978918;28;20057;-77
2023/10/07 11:02:05;;;;;;;7.97;3.20;;;;;;;22.81;61.02;100999.19;4981610;28;20038;-77
2023/10/07 11:04:31;;;;;;;3.45;3.15;;;;;;;22.50;60.70;100944.25;4980282;28;20105;-76
2023/10/07 11:06:58;;;;;;;1.35;1.13;;;;;;;22.28;61.71;100858.72;4981656;28;20042;-77
2023/10/07 11:09:34;;;;;;;2.13;2.00;;;;;;;23.00;61.63;100976.09;4978765;28;20591;-78
2023/10/07 11:12:09;;;;;;;4.85;4.45;;;;;;;23.19;61.30;100984.19;4981537;28;20477;-75
2023/10/07 11:14:35;;;;;;;0.75;0.75;;;;;;;23.36;59.46;100983.47;4979256;28;20030;-76
2023/10/07 11:17:03;;;;;;;1.15;0.98;;;;;;;23.14;59.70;100896.06;4978138;28;20689;-74
2023/10/07 11:19:30;;;;;;;0.63;0.63;;;;;;;23.04;59.38;100897.41;4986566;28;20047;-77
2023/10/07 11:21:56;;;;;;;4.43;2.03;;;;;;;22.76;59.12;100868.28;4986345;28;20070;-78
2023/10/07 11:24:26;;;;;;;3.00;2.78;;;;;;;23.17;59.83;100962.84;4989086;28;20038;-79
2023/10/07 11:26:59;;;;;;;1.05;0.95;;;;;;;23.06;59.17;100934.78;4987362;28;20046;-77
2023/10/07 11:29:29;;;;;;;2.35;1.75;;;;;;;22.66;59.79;100859.75;4987095;28;20152;-76
2023/10/07 11:32:06;;;;;;;0.88;0.85;;;;;;;22.99;58.18;100933.31;4990155;28;20084;-77
2023/10/07 11:34:40;;;;;;;5.15;2.00;;;;;;;22.73;58.70;100871.97;4984402;28;20046;-79
2023/10/07 11:37:09;;;;;;;7.00;2.45;;;;;;;23.31;58.38;100958.69;4988997;28;20042;-76
2023/10/07 11:39:45;;;;;;;1.38;1.27;;;;;;;23.05;59.24;100931.25;4982627;28;20554;-78
2023/10/07 11:42:22;;;;;;;2.63;1.52;;;;;;;23.26;58.23;100948.19;4984522;28;20073;-76
2023/10/07 11:44:54;;;;;;;4.68;2.65;;;;;;;22.70;57.77;100845.31;4982164;28;20132;-77
2023/10/07 11:47:20;;;;;;;1.65;1.40;;;;;;;23.32;57.91;100918.47;4976769;28;20256;-77
2023/10/07 11:49:47;;;;;;;1.77;1.67;;;;;;;23.09;58.54;100882.00;4980295;28;20050;-79
2023/10/07 11:52:14;;;;;;;2.47;1.42;;;;;;;23.36;56.47;100929.91;4987097;28;20050;-76
2023/10/07 11:54:40;;;;;;;2.10;1.90;;;;;;;23.27;56.40;100915.13;4982835;28;20434;-79
2023/10/07 11:57:06;;;;;;;4.63;3.05;;;;;;;23.20;56.85;100907.41;4979139;28;20730;-75
2023/10/07 11:59:35;;;;;;;2.22;1.52;;;;;;;23.11;54.60;100935.50;4983748;28;20046;-80
2023/10/07 12:02:09;;;;;;;1.02;0.93;;;;;;;22.53;55.82;100827.31;4988359;28;20446;-75
2023/10/07 12:04:42;;;;;;;0.20;0.20;;;;;;;22.93;56.38;100894.28;4987214;28;20081;-76
2023/10/07 12:07:08;;;;;;;1.65;1.52;;;;;;;23.21;55.64;100906.50;4981132;28;20074;-75
2023/10/07 12:09:34;;;;;;;1.13;0.90;;;;;;;23.35;55.45;100910.28;4985026;28;20104;-75
2023/10/07 12:12:02;;;;;;;1.38;1.27;;;;;;;23.12;55.71;100902.41;4987402;28;20044;-77
2023/10/07 12:14:32;;;;;;;2.33;1.73;;;;;;;22.72;54.75;100821.19;4987720;28;20033;-75
2023/10/07 12:16:58;;;;;;;1.27;1.13;;;;;;;23.10;54.95;100858.78;4978670;28;20035;-74
2023/10/07 12:19:25;;;;;;;1.52;1.40;;;;;;;22.71;55.67;100790.88;4982355;28;20089;-74